Aviation Digital Data Service (ADDS)

Output produced by METARs form (1027 UTC 16 August 2018)
found at http://aviationweather.gov/adds/metars/
 
KHUM 160520Z 1606/1706 00000KT P6SM SKC 
     FM161500 32003KT P6SM SCT250 
     FM161800 VRB05KT P6SM VCTS SCT035CB SCT110 
     FM170300 VRB03KT P6SM BKN250